Airfield :
LOGIN :

Register | Disclaimer

   EN    FR    IT 

 










Legend :    VFR   Marginal VFR   IFR   Intensive IFR   Very Intensive IFR
Visi :
Ceiling :
>= 8 km
>= 3000ft
5 to 8 km
1000 to 3000 ft
1500m to 5 km
500 to 1000 ft
800 to 1500m
200 to 500 ft
< 800m
< 200 ft
Symbols :   Thunderstorms  Fog  Heavy snow  Heavy precipitations  Wind > 20 kt
SIGMETs :     Misc.  Thunderstorms  Icing  Turbulence  Mountain Waves  Volcanic Ashes







- Airport Elevation : 16 ft
- IATA code : EAS


LESO - San Sebastian Fuenterrabia

CURRENT METAR :
  • 260930Z 36004KT 300V060 9999 FEW018 22/19 Q1016

EXPIRED METARs :
  • 260900Z 07005KT 020V100 9999 FEW008 SCT014 22/20 Q1016
  • 260838Z 06006KT 020V120 9999 FEW008 SCT013 22/20 Q1016
  • 260800Z 06005KT 030V090 8000 OVC009 20/19 Q1016
  • 260730Z 06005KT 030V100 7000 OVC007 20/19 Q1016
  • 260700Z 07003KT 020V160 7000 OVC006 20/18 Q1016

TAF TAF LESO
Valid from the 26 at 06:00 until the 27 at 06:00 UTC


260500Z 2606/2706 VRB06KT 9000 FEW005 BKN010 TX34/2618Z TN18/2706Z
PROB40
TEMPO 2606/2608 4000 BR BKN005
BECMG 2608/2610 07010KT FEW010
PROB40
TEMPO 2619/2622 14012KT SCT040TCU
BECMG 2620/2623 26012G22KT
PROB40
TEMPO 2620/2623 28018G30KT BKN010
TEMPO 2623/2706 VRB06KT BKN008
No reported NOTAMs for that airfield.
1 SIGMET reported for the Madrid FIR (LECM) :
 
Embedded thunderstorms
LECM SIGMET 3 VALID 260924/261200 LEVA
LECM MADRID FIR/UIR EMBD TS OBS AT 0924Z N OF LINE N4250 W01250 - N4440 W00730 TOP FL360 MOV N 20KT NC=



MET'MAP, your aeronautical weather chart ! - Copyright ORBIFLY December 2007 - Disclaimer

ORBIFLY MET'MAP TEAM :

Programming & Development : Alexandra Zaïnal
Concept & Development : Baudouin d'Aumeries
Co-Development & Prog : Marc-Olivier Méhu
Technical & hardware support : Manuel Goepfert

Contact : metmap@orbifly.com




SOURCES & CREDITS :

   NOAA